< < Back
Terminal Aerodrome Forecast


Current Version              Previous Versions:   1  2  3  4  5  6  7  8  9  

Terminal Aerodrome Forecast

082
FTUS42 KCHS 041722
TAFSAV
TAF
KSAV 041722Z 0418/0518 11011KT P6SM SCT050
     FM050100 VRB03KT P6SM FEW025
     FM051300 08008KT P6SM SCT040=



Latest METAR

942
SAUS80 KWBC 042000 RRB
MTRSAV
METAR KSAV 041953Z 10013KT 10SM FEW050 BKN110 25/11 A3029 RMK AO2 SLP255
T02500111


USA.gov is the U.S. government's official web portal to all federal, state and local government web resources and services.